Página principal
METAR-TAF:

METAR-TAF

Aeroportos :

Abu Simbel, Egipto

latitude: 22-22-33N, longitude: 31-36-42E, altura: 188 m

Observação actual do tempo

O boletim foi feito há 46 minutos, às 20:00 UTC
Vento 5 kt de noroeste
Temperatura 17°C
Humidade 36%
Pressão 1016 hPa
Visibilidade 10 km ou mais
sem nuvens abaixo de 1500 metros e sem cumulonimbus

METAR: HEBL 272000Z 31005KT CAVOK 17/02 Q1016 NOSIG

Hora: 22:46 (20:46 UTC)

Previsão

O boletim foi feito há 3 horas e 46 minutos, às 17:00 UTC
Previsão válida de 27 às 18 UTC a 28 às 24 UTC
Vento 11 kt de nor-noroeste
Visibilidade 10 km ou mais
sem nuvens abaixo de 1500 metros e sem cumulonimbus

TAF: HEBL 271700Z 2718/2824 34011KT CAVOK

Observações e previsões do tempo de mais de 4000 aeroportos (mensagens METAR e TAF).

As estações disponíveis são os pontos amarelos e vermelhos sobre o mapa.

Mova o rato sobre o mapa para ver o nome da estação.

Depois clique no ponto para visualizar as observações e previsões meteorológicas.

Para alterar o mapa : clique nos botões verdes com uma cruz preta para aumentar o zoom; no botão verde com uma pitada de zoom; ou nas setas verdes para mapas adjacentes.


METAR-TAF: